sensor_id;sensor_type;location;lat;lon;timestamp;pressure;altitude;pressure_sealevel;temperature;humidity
22333;BME280;11334;36.986;-121.936;2023-05-03T00:01:12;100634.09;;;19.06;56.96
22333;BME280;11334;36.986;-121.936;2023-05-03T00:03:38;100623.41;;;18.93;56.52
22333;BME280;11334;36.986;-121.936;2023-05-03T00:06:14;100641.59;;;18.78;56.32
22333;BME280;11334;36.986;-121.936;2023-05-03T00:08:41;100639.16;;;18.70;56.34
22333;BME280;11334;36.986;-121.936;2023-05-03T00:11:08;100620.84;;;18.48;57.14
22333;BME280;11334;36.986;-121.936;2023-05-03T00:13:35;100626.44;;;18.34;57.47
22333;BME280;11334;36.986;-121.936;2023-05-03T00:16:02;100637.16;;;18.28;58.39
22333;BME280;11334;36.986;-121.936;2023-05-03T00:18:28;100641.28;;;18.11;58.46
22333;BME280;11334;36.986;-121.936;2023-05-03T00:20:55;100636.75;;;17.92;59.63
22333;BME280;11334;36.986;-121.936;2023-05-03T00:23:22;100635.88;;;17.79;60.16
22333;BME280;11334;36.986;-121.936;2023-05-03T00:25:56;100627.44;;;17.75;61.77
22333;BME280;11334;36.986;-121.936;2023-05-03T00:28:22;100640.44;;;17.72;60.94
22333;BME280;11334;36.986;-121.936;2023-05-03T00:30:49;100627.44;;;17.69;62.26
22333;BME280;11334;36.986;-121.936;2023-05-03T00:33:15;100633.19;;;17.53;63.42
22333;BME280;11334;36.986;-121.936;2023-05-03T00:35:42;100636.09;;;17.52;63.70
22333;BME280;11334;36.986;-121.936;2023-05-03T00:38:09;100638.31;;;17.36;62.96
22333;BME280;11334;36.986;-121.936;2023-05-03T00:40:35;100638.09;;;17.31;63.75
22333;BME280;11334;36.986;-121.936;2023-05-03T00:43:01;100628.16;;;17.18;66.05
22333;BME280;11334;36.986;-121.936;2023-05-03T00:45:32;100635.53;;;17.10;67.00
22333;BME280;11334;36.986;-121.936;2023-05-03T00:47:59;100639.81;;;17.05;69.64
22333;BME280;11334;36.986;-121.936;2023-05-03T00:50:26;100642.44;;;16.85;70.48
22333;BME280;11334;36.986;-121.936;2023-05-03T00:52:53;100633.78;;;16.83;68.38
22333;BME280;11334;36.986;-121.936;2023-05-03T00:55:21;100639.88;;;16.71;69.28
22333;BME280;11334;36.986;-121.936;2023-05-03T00:57:47;100637.97;;;16.59;70.56
22333;BME280;11334;36.986;-121.936;2023-05-03T01:00:14;100638.16;;;16.57;70.22
22333;BME280;11334;36.986;-121.936;2023-05-03T01:02:40;100623.53;;;16.53;70.86
22333;BME280;11334;36.986;-121.936;2023-05-03T01:05:07;100631.09;;;16.44;70.90
22333;BME280;11334;36.986;-121.936;2023-05-03T01:10:36;100619.91;;;16.34;71.98
22333;BME280;11334;36.986;-121.936;2023-05-03T01:13:13;100616.53;;;16.25;72.37
22333;BME280;11334;36.986;-121.936;2023-05-03T01:15:48;100612.81;;;16.20;72.94
22333;BME280;11334;36.986;-121.936;2023-05-03T01:18:20;100623.28;;;16.15;73.30
22333;BME280;11334;36.986;-121.936;2023-05-03T01:20:49;100625.28;;;16.13;73.66
22333;BME280;11334;36.986;-121.936;2023-05-03T01:25:52;100625.28;;;16.13;75.17
22333;BME280;11334;36.986;-121.936;2023-05-03T01:28:19;100619.78;;;16.14;74.75
22333;BME280;11334;36.986;-121.936;2023-05-03T01:30:45;100606.31;;;16.08;74.25
22333;BME280;11334;36.986;-121.936;2023-05-03T01:33:18;100616.91;;;16.16;73.46
22333;BME280;11334;36.986;-121.936;2023-05-03T01:36:12;100618.75;;;16.15;73.94
22333;BME280;11334;36.986;-121.936;2023-05-03T01:38:42;100622.59;;;16.13;73.42
22333;BME280;11334;36.986;-121.936;2023-05-03T01:41:11;100613.22;;;16.17;72.18
22333;BME280;11334;36.986;-121.936;2023-05-03T01:43:38;100621.78;;;16.12;71.91
22333;BME280;11334;36.986;-121.936;2023-05-03T01:46:05;100613.59;;;16.14;71.25
22333;BME280;11334;36.986;-121.936;2023-05-03T01:48:31;100622.81;;;16.12;70.70
22333;BME280;11334;36.986;-121.936;2023-05-03T01:50:57;100628.44;;;16.16;71.07
22333;BME280;11334;36.986;-121.936;2023-05-03T01:53:24;100627.13;;;16.12;71.52
22333;BME280;11334;36.986;-121.936;2023-05-03T01:55:50;100619.50;;;16.10;71.07
22333;BME280;11334;36.986;-121.936;2023-05-03T01:58:16;100629.38;;;16.09;71.85
22333;BME280;11334;36.986;-121.936;2023-05-03T02:00:44;100604.38;;;15.96;71.47
22333;BME280;11334;36.986;-121.936;2023-05-03T02:03:11;100623.94;;;15.96;71.73
22333;BME280;11334;36.986;-121.936;2023-05-03T02:05:37;100635.88;;;16.00;72.76
22333;BME280;11334;36.986;-121.936;2023-05-03T02:08:03;100627.66;;;16.02;72.73
22333;BME280;11334;36.986;-121.936;2023-05-03T02:10:30;100621.88;;;15.98;73.14
22333;BME280;11334;36.986;-121.936;2023-05-03T02:12:56;100617.56;;;15.97;72.99
22333;BME280;11334;36.986;-121.936;2023-05-03T02:15:22;100623.72;;;15.98;72.83
22333;BME280;11334;36.986;-121.936;2023-05-03T02:17:48;100619.59;;;15.95;72.17
22333;BME280;11334;36.986;-121.936;2023-05-03T02:20:16;100596.72;;;15.86;72.27
22333;BME280;11334;36.986;-121.936;2023-05-03T02:22:42;100619.59;;;15.95;73.34
22333;BME280;11334;36.986;-121.936;2023-05-03T02:25:08;100614.63;;;15.92;72.60
22333;BME280;11334;36.986;-121.936;2023-05-03T02:27:35;100609.22;;;15.86;72.54
22333;BME280;11334;36.986;-121.936;2023-05-03T02:30:01;100612.69;;;15.80;71.82
22333;BME280;11334;36.986;-121.936;2023-05-03T02:32:27;100610.97;;;15.73;71.57
22333;BME280;11334;36.986;-121.936;2023-05-03T02:34:53;100617.97;;;15.74;70.80
22333;BME280;11334;36.986;-121.936;2023-05-03T02:37:20;100609.69;;;15.69;71.19
22333;BME280;11334;36.986;-121.936;2023-05-03T02:39:46;100620.13;;;15.64;71.98
22333;BME280;11334;36.986;-121.936;2023-05-03T02:42:12;100621.72;;;15.58;72.25
22333;BME280;11334;36.986;-121.936;2023-05-03T02:44:39;100621.16;;;15.63;72.17
22333;BME280;11334;36.986;-121.936;2023-05-03T02:47:05;100621.72;;;15.58;72.00
22333;BME280;11334;36.986;-121.936;2023-05-03T02:49:32;100625.34;;;15.51;72.77
22333;BME280;11334;36.986;-121.936;2023-05-03T02:51:58;100631.09;;;15.48;72.87
22333;BME280;11334;36.986;-121.936;2023-05-03T02:54:24;100628.97;;;15.44;72.37
22333;BME280;11334;36.986;-121.936;2023-05-03T02:56:51;100628.41;;;15.48;73.28
22333;BME280;11334;36.986;-121.936;2023-05-03T02:59:17;100630.44;;;15.46;73.45
22333;BME280;11334;36.986;-121.936;2023-05-03T03:01:45;100634.88;;;15.39;72.95
22333;BME280;11334;36.986;-121.936;2023-05-03T03:04:11;100641.06;;;15.40;72.31
22333;BME280;11334;36.986;-121.936;2023-05-03T03:06:37;100634.69;;;15.41;71.75
22333;BME280;11334;36.986;-121.936;2023-05-03T03:09:04;100637.94;;;15.36;73.29
22333;BME280;11334;36.986;-121.936;2023-05-03T03:11:30;100639.78;;;15.36;74.64
22333;BME280;11334;36.986;-121.936;2023-05-03T03:13:56;100637.94;;;15.36;75.67
22333;BME280;11334;36.986;-121.936;2023-05-03T03:16:23;100655.63;;;15.37;77.35
22333;BME280;11334;36.986;-121.936;2023-05-03T03:18:49;100659.84;;;15.32;77.67
22333;BME280;11334;36.986;-121.936;2023-05-03T03:21:15;100657.38;;;15.30;78.79
22333;BME280;11334;36.986;-121.936;2023-05-03T03:23:41;100666.88;;;15.33;80.95
22333;BME280;11334;36.986;-121.936;2023-05-03T03:26:07;100647.19;;;15.19;81.45
22333;BME280;11334;36.986;-121.936;2023-05-03T03:28:34;100670.28;;;15.27;83.35
22333;BME280;11334;36.986;-121.936;2023-05-03T03:31:00;100668.19;;;15.22;83.82
22333;BME280;11334;36.986;-121.936;2023-05-03T03:33:26;100660.47;;;15.13;84.94
22333;BME280;11334;36.986;-121.936;2023-05-03T03:35:52;100660.47;;;15.13;85.92
22333;BME280;11334;36.986;-121.936;2023-05-03T03:38:18;100665.63;;;15.00;86.86
22333;BME280;11334;36.986;-121.936;2023-05-03T03:40:45;100671.97;;;14.99;87.11
22333;BME280;11334;36.986;-121.936;2023-05-03T03:43:11;100668.03;;;14.95;87.84
22333;BME280;11334;36.986;-121.936;2023-05-03T03:45:37;100673.09;;;14.90;90.32
22333;BME280;11334;36.986;-121.936;2023-05-03T03:48:04;100677.88;;;14.81;91.29
22333;BME280;11334;36.986;-121.936;2023-05-03T03:50:30;100671.47;;;14.75;91.09
22333;BME280;11334;36.986;-121.936;2023-05-03T03:52:56;100687.91;;;14.79;92.65
22333;BME280;11334;36.986;-121.936;2023-05-03T03:55:22;100680.81;;;14.71;92.38
22333;BME280;11334;36.986;-121.936;2023-05-03T03:57:49;100676.13;;;14.59;92.14
22333;BME280;11334;36.986;-121.936;2023-05-03T04:00:15;100685.72;;;14.68;93.05
22333;BME280;11334;36.986;-121.936;2023-05-03T04:02:41;100690.94;;;14.61;95.03
22333;BME280;11334;36.986;-121.936;2023-05-03T04:05:07;100699.47;;;14.57;96.19
22333;BME280;11334;36.986;-121.936;2023-05-03T04:07:34;100690.38;;;14.52;95.95
22333;BME280;11334;36.986;-121.936;2023-05-03T04:10:00;100691.22;;;14.52;97.17
22333;BME280;11334;36.986;-121.936;2023-05-03T04:12:26;100699.22;;;14.52;97.38
22333;BME280;11334;36.986;-121.936;2023-05-03T04:14:53;100697.28;;;14.46;96.55
22333;BME280;11334;36.986;-121.936;2023-05-03T04:17:21;100695.31;;;14.40;96.66
22333;BME280;11334;36.986;-121.936;2023-05-03T04:19:47;100696.59;;;14.30;99.95
22333;BME280;11334;36.986;-121.936;2023-05-03T04:22:13;100689.78;;;14.27;100.00
22333;BME280;11334;36.986;-121.936;2023-05-03T04:24:40;100686.47;;;14.25;100.00
22333;BME280;11334;36.986;-121.936;2023-05-03T04:27:06;100688.81;;;14.28;100.00
22333;BME280;11334;36.986;-121.936;2023-05-03T04:29:33;100678.69;;;14.24;100.00
22333;BME280;11334;36.986;-121.936;2023-05-03T04:31:59;100680.41;;;14.17;100.00
22333;BME280;11334;36.986;-121.936;2023-05-03T04:34:27;100682.41;;;14.15;100.00
22333;BME280;11334;36.986;-121.936;2023-05-03T04:36:54;100685.91;;;14.16;100.00
22333;BME280;11334;36.986;-121.936;2023-05-03T04:39:21;100688.66;;;14.08;100.00
22333;BME280;11334;36.986;-121.936;2023-05-03T04:41:47;100686.72;;;14.02;100.00
22333;BME280;11334;36.986;-121.936;2023-05-03T04:44:13;100679.56;;;14.02;100.00
22333;BME280;11334;36.986;-121.936;2023-05-03T04:46:40;100686.75;;;13.94;100.00
22333;BME280;11334;36.986;-121.936;2023-05-03T04:49:06;100680.50;;;13.87;100.00
22333;BME280;11334;36.986;-121.936;2023-05-03T04:51:32;100689.91;;;13.97;100.00
22333;BME280;11334;36.986;-121.936;2023-05-03T04:53:58;100684.91;;;13.94;100.00
22333;BME280;11334;36.986;-121.936;2023-05-03T04:56:25;100687.25;;;13.97;100.00
22333;BME280;11334;36.986;-121.936;2023-05-03T04:58:52;100685.34;;;13.84;100.00
22333;BME280;11334;36.986;-121.936;2023-05-03T05:01:18;100688.13;;;13.90;100.00
22333;BME280;11334;36.986;-121.936;2023-05-03T05:03:51;100696.28;;;13.88;100.00
22333;BME280;11334;36.986;-121.936;2023-05-03T05:06:18;100689.13;;;13.89;100.00
22333;BME280;11334;36.986;-121.936;2023-05-03T05:08:44;100702.91;;;13.92;100.00
22333;BME280;11334;36.986;-121.936;2023-05-03T05:11:12;100694.75;;;13.94;100.00
22333;BME280;11334;36.986;-121.936;2023-05-03T05:13:39;100689.06;;;13.97;100.00
22333;BME280;11334;36.986;-121.936;2023-05-03T05:16:05;100687.38;;;13.82;100.00
22333;BME280;11334;36.986;-121.936;2023-05-03T05:18:31;100696.09;;;13.90;100.00
22333;BME280;11334;36.986;-121.936;2023-05-03T05:20:58;100687.28;;;13.89;100.00
22333;BME280;11334;36.986;-121.936;2023-05-03T05:23:24;100693.28;;;13.91;100.00
22333;BME280;11334;36.986;-121.936;2023-05-03T05:25:50;100684.25;;;13.92;100.00
22333;BME280;11334;36.986;-121.936;2023-05-03T05:28:18;100696.47;;;13.87;100.00
22333;BME280;11334;36.986;-121.936;2023-05-03T05:30:44;100697.13;;;13.89;100.00
22333;BME280;11334;36.986;-121.936;2023-05-03T05:33:10;100687.53;;;13.80;100.00
22333;BME280;11334;36.986;-121.936;2023-05-03T05:35:37;100701.06;;;13.93;100.00
22333;BME280;11334;36.986;-121.936;2023-05-03T05:38:03;100684.63;;;13.89;100.00
22333;BME280;11334;36.986;-121.936;2023-05-03T05:40:29;100690.31;;;13.87;100.00
22333;BME280;11334;36.986;-121.936;2023-05-03T05:42:55;100686.19;;;13.84;100.00
22333;BME280;11334;36.986;-121.936;2023-05-03T05:45:22;100686.84;;;13.86;100.00
22333;BME280;11334;36.986;-121.936;2023-05-03T05:47:48;100684.16;;;13.86;100.00
22333;BME280;11334;36.986;-121.936;2023-05-03T05:50:14;100681.84;;;13.83;100.00
22333;BME280;11334;36.986;-121.936;2023-05-03T05:52:40;100684.69;;;13.82;100.00
22333;BME280;11334;36.986;-121.936;2023-05-03T05:55:07;100685.88;;;13.79;100.00
22333;BME280;11334;36.986;-121.936;2023-05-03T05:57:34;100685.06;;;13.79;100.00
22333;BME280;11334;36.986;-121.936;2023-05-03T06:00:00;100684.03;;;13.80;100.00
22333;BME280;11334;36.986;-121.936;2023-05-03T06:02:26;100689.38;;;13.80;100.00
22333;BME280;11334;36.986;-121.936;2023-05-03T06:04:53;100687.91;;;13.77;100.00
22333;BME280;11334;36.986;-121.936;2023-05-03T06:07:19;100680.56;;;13.79;100.00
22333;BME280;11334;36.986;-121.936;2023-05-03T06:09:45;100678.25;;;13.76;100.00
22333;BME280;11334;36.986;-121.936;2023-05-03T06:12:11;100686.59;;;13.73;100.00
22333;BME280;11334;36.986;-121.936;2023-05-03T06:14:38;100681.38;;;13.80;100.00
22333;BME280;11334;36.986;-121.936;2023-05-03T06:17:04;100673.94;;;13.75;100.00
22333;BME280;11334;36.986;-121.936;2023-05-03T06:19:30;100679.44;;;13.74;100.00
22333;BME280;11334;36.986;-121.936;2023-05-03T06:21:56;100677.41;;;13.76;100.00
22333;BME280;11334;36.986;-121.936;2023-05-03T06:24:22;100679.63;;;13.72;100.00
22333;BME280;11334;36.986;-121.936;2023-05-03T06:26:48;100671.50;;;13.66;100.00
22333;BME280;11334;36.986;-121.936;2023-05-03T06:29:15;100674.34;;;13.64;100.00
22333;BME280;11334;36.986;-121.936;2023-05-03T06:31:41;100675.84;;;13.67;100.00
22333;BME280;11334;36.986;-121.936;2023-05-03T06:34:08;100673.34;;;13.65;100.00
22333;BME280;11334;36.986;-121.936;2023-05-03T06:36:34;100672.50;;;13.65;100.00
22333;BME280;11334;36.986;-121.936;2023-05-03T06:39:00;100674.34;;;13.64;100.00
22333;BME280;11334;36.986;-121.936;2023-05-03T06:41:30;100665.88;;;13.61;100.00
22333;BME280;11334;36.986;-121.936;2023-05-03T06:43:57;100678.50;;;13.67;100.00
22333;BME280;11334;36.986;-121.936;2023-05-03T06:46:24;100672.06;;;13.61;100.00
22333;BME280;11334;36.986;-121.936;2023-05-03T06:48:51;100678.00;;;13.63;100.00
22333;BME280;11334;36.986;-121.936;2023-05-03T06:51:22;100683.16;;;13.65;100.00
22333;BME280;11334;36.986;-121.936;2023-05-03T06:53:53;100681.09;;;13.53;100.00
22333;BME280;11334;36.986;-121.936;2023-05-03T06:56:21;100688.56;;;13.57;100.00
22333;BME280;11334;36.986;-121.936;2023-05-03T06:58:47;100681.25;;;13.51;100.00
22333;BME280;11334;36.986;-121.936;2023-05-03T07:01:14;100665.84;;;13.47;100.00
22333;BME280;11334;36.986;-121.936;2023-05-03T07:03:40;100681.38;;;13.57;100.00
22333;BME280;11334;36.986;-121.936;2023-05-03T07:06:06;100686.06;;;13.56;100.00
22333;BME280;11334;36.986;-121.936;2023-05-03T07:08:32;100682.09;;;13.52;100.00
22333;BME280;11334;36.986;-121.936;2023-05-03T07:10:59;100679.59;;;13.50;100.00
22333;BME280;11334;36.986;-121.936;2023-05-03T07:13:25;100685.41;;;13.54;100.00
22333;BME280;11334;36.986;-121.936;2023-05-03T07:15:51;100686.94;;;13.48;100.00
22333;BME280;11334;36.986;-121.936;2023-05-03T07:18:17;100688.31;;;13.44;100.00
22333;BME280;11334;36.986;-121.936;2023-05-03T07:20:44;100676.28;;;13.48;100.00
22333;BME280;11334;36.986;-121.936;2023-05-03T07:23:11;100674.00;;;13.45;100.00
22333;BME280;11334;36.986;-121.936;2023-05-03T07:25:37;100694.41;;;13.53;100.00
22333;BME280;11334;36.986;-121.936;2023-05-03T07:28:06;100677.78;;;13.51;100.00
22333;BME280;11334;36.986;-121.936;2023-05-03T07:30:32;100674.94;;;13.52;100.00
22333;BME280;11334;36.986;-121.936;2023-05-03T07:32:59;100675.09;;;13.51;100.00
22333;BME280;11334;36.986;-121.936;2023-05-03T07:35:25;100687.75;;;13.49;100.00
22333;BME280;11334;36.986;-121.936;2023-05-03T07:37:52;100686.84;;;13.42;100.00
22333;BME280;11334;36.986;-121.936;2023-05-03T07:40:18;100682.84;;;13.38;100.00
22333;BME280;11334;36.986;-121.936;2023-05-03T07:42:44;100686.03;;;13.33;100.00
22333;BME280;11334;36.986;-121.936;2023-05-03T07:45:11;100692.16;;;13.42;100.00
22333;BME280;11334;36.986;-121.936;2023-05-03T07:47:37;100690.47;;;13.41;100.00
22333;BME280;11334;36.986;-121.936;2023-05-03T07:50:05;100685.97;;;13.41;100.00
22333;BME280;11334;36.986;-121.936;2023-05-03T07:52:38;100689.19;;;13.37;100.00
22333;BME280;11334;36.986;-121.936;2023-05-03T07:55:07;100686.84;;;13.42;100.00
22333;BME280;11334;36.986;-121.936;2023-05-03T07:57:33;100689.13;;;13.45;100.00
22333;BME280;11334;36.986;-121.936;2023-05-03T08:00:01;100680.63;;;13.49;100.00
22333;BME280;11334;36.986;-121.936;2023-05-03T08:02:28;100687.28;;;13.45;100.00
22333;BME280;11334;36.986;-121.936;2023-05-03T08:04:55;100684.16;;;13.42;100.00
22333;BME280;11334;36.986;-121.936;2023-05-03T08:07:21;100684.34;;;13.40;100.00
22333;BME280;11334;36.986;-121.936;2023-05-03T08:09:48;100677.16;;;13.41;100.00
22333;BME280;11334;36.986;-121.936;2023-05-03T08:12:14;100681.66;;;13.40;100.00
22333;BME280;11334;36.986;-121.936;2023-05-03T08:14:40;100684.16;;;13.42;100.00
22333;BME280;11334;36.986;-121.936;2023-05-03T08:17:06;100672.88;;;13.40;100.00
22333;BME280;11334;36.986;-121.936;2023-05-03T08:19:34;100673.69;;;13.40;100.00
22333;BME280;11334;36.986;-121.936;2023-05-03T08:22:00;100675.69;;;13.38;100.00
22333;BME280;11334;36.986;-121.936;2023-05-03T08:24:27;100666.53;;;13.41;100.00
22333;BME280;11334;36.986;-121.936;2023-05-03T08:26:54;100666.53;;;13.41;100.00
22333;BME280;11334;36.986;-121.936;2023-05-03T08:29:20;100669.53;;;13.38;100.00
22333;BME280;11334;36.986;-121.936;2023-05-03T08:31:46;100670.38;;;13.38;100.00
22333;BME280;11334;36.986;-121.936;2023-05-03T08:34:12;100663.09;;;13.32;100.00
22333;BME280;11334;36.986;-121.936;2023-05-03T08:36:39;100658.81;;;13.24;100.00
22333;BME280;11334;36.986;-121.936;2023-05-03T08:39:05;100657.63;;;13.26;100.00
22333;BME280;11334;36.986;-121.936;2023-05-03T08:41:32;100653.28;;;13.33;100.00
22333;BME280;11334;36.986;-121.936;2023-05-03T08:43:59;100654.75;;;13.35;100.00
22333;BME280;11334;36.986;-121.936;2023-05-03T08:46:27;100658.91;;;13.38;100.00
22333;BME280;11334;36.986;-121.936;2023-05-03T08:48:54;100652.63;;;13.31;100.00
22333;BME280;11334;36.986;-121.936;2023-05-03T08:51:22;100647.78;;;13.34;100.00
22333;BME280;11334;36.986;-121.936;2023-05-03T08:53:49;100653.94;;;13.35;100.00
22333;BME280;11334;36.986;-121.936;2023-05-03T08:56:28;100653.94;;;13.35;100.00
22333;BME280;11334;36.986;-121.936;2023-05-03T08:58:55;100656.75;;;13.33;100.00
22333;BME280;11334;36.986;-121.936;2023-05-03T09:01:21;100663.25;;;13.31;100.00
22333;BME280;11334;36.986;-121.936;2023-05-03T09:03:49;100659.06;;;13.36;100.00
22333;BME280;11334;36.986;-121.936;2023-05-03T09:06:21;100666.59;;;13.33;100.00
22333;BME280;11334;36.986;-121.936;2023-05-03T09:08:50;100663.31;;;13.23;100.00
22333;BME280;11334;36.986;-121.936;2023-05-03T09:11:24;100671.13;;;13.25;100.00
22333;BME280;11334;36.986;-121.936;2023-05-03T09:13:51;100661.31;;;13.25;100.00
22333;BME280;11334;36.986;-121.936;2023-05-03T09:16:24;100665.16;;;13.23;100.00
22333;BME280;11334;36.986;-121.936;2023-05-03T09:19:04;100661.00;;;13.20;100.00
22333;BME280;11334;36.986;-121.936;2023-05-03T09:21:38;100657.69;;;13.18;100.00
22333;BME280;11334;36.986;-121.936;2023-05-03T09:24:16;100658.06;;;13.15;100.00
22333;BME280;11334;36.986;-121.936;2023-05-03T09:26:44;100659.75;;;13.08;100.00
22333;BME280;11334;36.986;-121.936;2023-05-03T09:32:01;100653.91;;;13.13;100.00
22333;BME280;11334;36.986;-121.936;2023-05-03T09:34:29;100648.94;;;13.10;100.00
22333;BME280;11334;36.986;-121.936;2023-05-03T09:36:56;100655.75;;;13.12;100.00
22333;BME280;11334;36.986;-121.936;2023-05-03T09:39:23;100646.16;;;13.03;100.00
22333;BME280;11334;36.986;-121.936;2023-05-03T09:41:49;100646.31;;;13.02;100.00
22333;BME280;11334;36.986;-121.936;2023-05-03T09:44:18;100643.19;;;12.98;100.00
22333;BME280;11334;36.986;-121.936;2023-05-03T09:47:04;100636.91;;;12.92;100.00
22333;BME280;11334;36.986;-121.936;2023-05-03T09:49:31;100644.22;;;12.90;100.00
22333;BME280;11334;36.986;-121.936;2023-05-03T09:51:59;100645.69;;;12.92;100.00
22333;BME280;11334;36.986;-121.936;2023-05-03T09:54:26;100638.88;;;12.90;100.00
22333;BME280;11334;36.986;-121.936;2023-05-03T09:56:53;100635.41;;;12.89;100.00
22333;BME280;11334;36.986;-121.936;2023-05-03T09:59:23;100636.53;;;12.94;100.00
22333;BME280;11334;36.986;-121.936;2023-05-03T10:01:54;100636.22;;;12.90;100.00
22333;BME280;11334;36.986;-121.936;2023-05-03T10:04:24;100626.63;;;12.89;100.00
22333;BME280;11334;36.986;-121.936;2023-05-03T10:06:54;100624.78;;;12.89;100.00
22333;BME280;11334;36.986;-121.936;2023-05-03T10:09:25;100622.31;;;12.88;100.00
22333;BME280;11334;36.986;-121.936;2023-05-03T10:11:58;100621.81;;;12.84;100.00
22333;BME280;11334;36.986;-121.936;2023-05-03T10:14:25;100617.50;;;12.83;100.00
22333;BME280;11334;36.986;-121.936;2023-05-03T10:16:57;100617.81;;;12.88;100.00
22333;BME280;11334;36.986;-121.936;2023-05-03T10:19:45;100619.47;;;12.89;100.00
22333;BME280;11334;36.986;-121.936;2023-05-03T10:22:12;100610.34;;;12.84;100.00
22333;BME280;11334;36.986;-121.936;2023-05-03T10:25:08;100616.13;;;12.87;100.00
22333;BME280;11334;36.986;-121.936;2023-05-03T10:30:32;100609.84;;;12.88;100.00
22333;BME280;11334;36.986;-121.936;2023-05-03T10:35:42;100609.34;;;12.85;100.00
22333;BME280;11334;36.986;-121.936;2023-05-03T10:38:19;100613.16;;;12.82;100.00
22333;BME280;11334;36.986;-121.936;2023-05-03T10:40:45;100613.16;;;12.82;100.00
22333;BME280;11334;36.986;-121.936;2023-05-03T10:43:40;100612.88;;;12.77;100.00
22333;BME280;11334;36.986;-121.936;2023-05-03T10:46:09;100596.28;;;12.67;100.00
22333;BME280;11334;36.986;-121.936;2023-05-03T10:49:16;100605.56;;;12.71;100.00
22333;BME280;11334;36.986;-121.936;2023-05-03T10:51:43;100601.13;;;12.64;100.00
22333;BME280;11334;36.986;-121.936;2023-05-03T10:54:10;100603.41;;;12.67;100.00
22333;BME280;11334;36.986;-121.936;2023-05-03T10:56:54;100598.94;;;12.67;100.00
22333;BME280;11334;36.986;-121.936;2023-05-03T10:59:22;100601.94;;;12.64;100.00
22333;BME280;11334;36.986;-121.936;2023-05-03T11:01:50;100607.09;;;12.66;100.00
22333;BME280;11334;36.986;-121.936;2023-05-03T11:04:22;100604.59;;;12.64;100.00
22333;BME280;11334;36.986;-121.936;2023-05-03T11:06:51;100603.41;;;12.67;100.00
22333;BME280;11334;36.986;-121.936;2023-05-03T11:09:32;100600.44;;;12.62;100.00
22333;BME280;11334;36.986;-121.936;2023-05-03T11:12:03;100599.28;;;12.64;100.00
22333;BME280;11334;36.986;-121.936;2023-05-03T11:14:29;100583.22;;;12.58;100.00
22333;BME280;11334;36.986;-121.936;2023-05-03T11:16:55;100582.91;;;12.53;100.00
22333;BME280;11334;36.986;-121.936;2023-05-03T11:19:22;100594.78;;;12.65;100.00
22333;BME280;11334;36.986;-121.936;2023-05-03T11:21:49;100594.31;;;12.62;100.00
22333;BME280;11334;36.986;-121.936;2023-05-03T11:24:16;100595.31;;;12.61;100.00
22333;BME280;11334;36.986;-121.936;2023-05-03T11:26:42;100594.00;;;12.57;100.00
22333;BME280;11334;36.986;-121.936;2023-05-03T11:29:09;100591.66;;;12.62;100.00
22333;BME280;11334;36.986;-121.936;2023-05-03T11:31:36;100594.16;;;12.63;100.00
22333;BME280;11334;36.986;-121.936;2023-05-03T11:34:02;100589.72;;;12.56;100.00
22333;BME280;11334;36.986;-121.936;2023-05-03T11:36:29;100591.00;;;12.60;100.00
22333;BME280;11334;36.986;-121.936;2023-05-03T11:38:56;100598.81;;;12.61;100.00
22333;BME280;11334;36.986;-121.936;2023-05-03T11:41:22;100602.94;;;12.63;100.00
22333;BME280;11334;36.986;-121.936;2023-05-03T11:43:48;100591.84;;;12.60;100.00
22333;BME280;11334;36.986;-121.936;2023-05-03T11:46:23;100595.50;;;12.59;100.00
22333;BME280;11334;36.986;-121.936;2023-05-03T11:48:51;100592.66;;;12.61;100.00
22333;BME280;11334;36.986;-121.936;2023-05-03T11:51:24;100590.06;;;12.53;100.00
22333;BME280;11334;36.986;-121.936;2023-05-03T11:53:51;100587.50;;;12.59;100.00
22333;BME280;11334;36.986;-121.936;2023-05-03T11:56:18;100584.03;;;12.59;100.00
22333;BME280;11334;36.986;-121.936;2023-05-03T11:58:53;100584.84;;;12.59;100.00
22333;BME280;11334;36.986;-121.936;2023-05-03T12:01:23;100588.19;;;12.61;100.00
22333;BME280;11334;36.986;-121.936;2023-05-03T12:03:58;100585.16;;;12.64;100.00
22333;BME280;11334;36.986;-121.936;2023-05-03T12:06:26;100581.03;;;12.62;100.00
22333;BME280;11334;36.986;-121.936;2023-05-03T12:08:53;100587.97;;;12.62;100.00
22333;BME280;11334;36.986;-121.936;2023-05-03T12:11:20;100590.53;;;12.56;100.00
22333;BME280;11334;36.986;-121.936;2023-05-03T12:13:58;100585.31;;;12.62;100.00
22333;BME280;11334;36.986;-121.936;2023-05-03T12:16:25;100582.03;;;12.61;100.00
22333;BME280;11334;36.986;-121.936;2023-05-03T12:18:57;100580.41;;;12.52;100.00
22333;BME280;11334;36.986;-121.936;2023-05-03T12:21:47;100585.22;;;12.56;100.00
22333;BME280;11334;36.986;-121.936;2023-05-03T12:24:13;100595.38;;;12.53;100.00
22333;BME280;11334;36.986;-121.936;2023-05-03T12:26:45;100598.66;;;12.55;100.00
22333;BME280;11334;36.986;-121.936;2023-05-03T12:29:11;100595.84;;;12.56;100.00
22333;BME280;11334;36.986;-121.936;2023-05-03T12:31:38;100598.16;;;12.59;100.00